sensor_id;sensor_type;location;lat;lon;timestamp;pressure;altitude;pressure_sealevel;temperature
66170;BMP280;52971;44.024;20.456;2022-09-12T00:01:45;97983.53;;;14.92
66170;BMP280;52971;44.024;20.456;2022-09-12T00:04:10;97975.63;;;14.95
66170;BMP280;52971;44.024;20.456;2022-09-12T00:06:36;97978.06;;;14.68
66170;BMP280;52971;44.024;20.456;2022-09-12T00:09:11;97979.13;;;14.75
66170;BMP280;52971;44.024;20.456;2022-09-12T00:11:42;97966.16;;;14.65
66170;BMP280;52971;44.024;20.456;2022-09-12T00:14:09;97972.34;;;14.36
66170;BMP280;52971;44.024;20.456;2022-09-12T00:16:36;97970.84;;;14.47
66170;BMP280;52971;44.024;20.456;2022-09-12T00:19:03;97970.28;;;14.63
66170;BMP280;52971;44.024;20.456;2022-09-12T00:21:32;97967.28;;;14.64
66170;BMP280;52971;44.024;20.456;2022-09-12T00:23:57;97974.63;;;14.67
66170;BMP280;52971;44.024;20.456;2022-09-12T00:26:23;97958.09;;;14.74
66170;BMP280;52971;44.024;20.456;2022-09-12T00:28:48;97958.75;;;14.50
66170;BMP280;52971;44.024;20.456;2022-09-12T00:31:17;97956.66;;;14.55
66170;BMP280;52971;44.024;20.456;2022-09-12T00:33:43;97957.03;;;14.66
66170;BMP280;52971;44.024;20.456;2022-09-12T00:36:12;97967.13;;;14.60
66170;BMP280;52971;44.024;20.456;2022-09-12T00:38:39;97965.50;;;14.68
66170;BMP280;52971;44.024;20.456;2022-09-12T00:41:30;97962.84;;;14.68
66170;BMP280;52971;44.024;20.456;2022-09-12T00:44:01;97959.19;;;14.73
66170;BMP280;52971;44.024;20.456;2022-09-12T00:54:40;97978.13;;;14.80
66170;BMP280;52971;44.024;20.456;2022-09-12T00:57:09;97980.31;;;14.98
66170;BMP280;52971;44.024;20.456;2022-09-12T00:59:46;97985.97;;;14.97
66170;BMP280;52971;44.024;20.456;2022-09-12T01:02:13;97983.78;;;15.11
66170;BMP280;52971;44.024;20.456;2022-09-12T01:04:39;97978.09;;;15.01
66170;BMP280;52971;44.024;20.456;2022-09-12T01:07:06;97979.16;;;14.99
66170;BMP280;52971;44.024;20.456;2022-09-12T01:09:32;97984.78;;;14.74
66170;BMP280;52971;44.024;20.456;2022-09-12T01:11:57;97981.38;;;14.65
66170;BMP280;52971;44.024;20.456;2022-09-12T01:14:25;97978.41;;;14.87
66170;BMP280;52971;44.024;20.456;2022-09-12T01:16:51;97978.34;;;14.75
66170;BMP280;52971;44.024;20.456;2022-09-12T01:38:37;97981.25;;;14.82
66170;BMP280;52971;44.024;20.456;2022-09-12T01:49:00;97978.00;;;15.09
66170;BMP280;52971;44.024;20.456;2022-09-12T01:51:37;97984.41;;;14.96
66170;BMP280;52971;44.024;20.456;2022-09-12T01:54:08;97971.38;;;14.94
66170;BMP280;52971;44.024;20.456;2022-09-12T01:56:37;97971.66;;;15.02
66170;BMP280;52971;44.024;20.456;2022-09-12T01:59:10;97974.06;;;14.94
66170;BMP280;52971;44.024;20.456;2022-09-12T02:02:07;97962.06;;;15.01
66170;BMP280;52971;44.024;20.456;2022-09-12T02:04:45;97966.16;;;14.98
66170;BMP280;52971;44.024;20.456;2022-09-12T02:07:26;97958.59;;;14.88
66170;BMP280;52971;44.024;20.456;2022-09-12T02:12:41;97960.94;;;14.69
66170;BMP280;52971;44.024;20.456;2022-09-12T02:15:11;97963.53;;;14.77
66170;BMP280;52971;44.024;20.456;2022-09-12T02:17:41;97956.56;;;14.85
66170;BMP280;52971;44.024;20.456;2022-09-12T02:20:23;97953.88;;;14.85
66170;BMP280;52971;44.024;20.456;2022-09-12T02:22:51;97961.16;;;14.96
66170;BMP280;52971;44.024;20.456;2022-09-12T02:25:19;97953.19;;;15.09
66170;BMP280;52971;44.024;20.456;2022-09-12T02:27:52;97949.38;;;14.97
66170;BMP280;52971;44.024;20.456;2022-09-12T02:30:20;97942.41;;;15.17
66170;BMP280;52971;44.024;20.456;2022-09-12T02:35:37;97952.63;;;15.03
66170;BMP280;52971;44.024;20.456;2022-09-12T02:38:24;97951.94;;;15.06
66170;BMP280;52971;44.024;20.456;2022-09-12T02:40:50;97949.50;;;15.13
66170;BMP280;52971;44.024;20.456;2022-09-12T02:43:16;97945.19;;;15.21
66170;BMP280;52971;44.024;20.456;2022-09-12T02:45:42;97955.13;;;15.20
66170;BMP280;52971;44.024;20.456;2022-09-12T02:48:09;97952.91;;;15.22
66170;BMP280;52971;44.024;20.456;2022-09-12T02:50:36;97966.31;;;15.02
66170;BMP280;52971;44.024;20.456;2022-09-12T02:53:02;97963.88;;;15.09
66170;BMP280;52971;44.024;20.456;2022-09-12T02:55:31;97960.75;;;15.07
66170;BMP280;52971;44.024;20.456;2022-09-12T02:57:58;97959.31;;;15.09
66170;BMP280;52971;44.024;20.456;2022-09-12T03:00:25;97955.53;;;15.10
66170;BMP280;52971;44.024;20.456;2022-09-12T03:03:08;97958.84;;;15.07
66170;BMP280;52971;44.024;20.456;2022-09-12T03:05:48;97958.53;;;15.09
66170;BMP280;52971;44.024;20.456;2022-09-12T03:16:41;97952.00;;;15.43
66170;BMP280;52971;44.024;20.456;2022-09-12T03:22:12;97957.47;;;15.22
66170;BMP280;52971;44.024;20.456;2022-09-12T03:24:53;97956.41;;;15.14
66170;BMP280;52971;44.024;20.456;2022-09-12T03:27:29;97955.31;;;15.03
66170;BMP280;52971;44.024;20.456;2022-09-12T03:29:57;97958.81;;;14.95
66170;BMP280;52971;44.024;20.456;2022-09-12T03:32:57;97953.25;;;14.88
66170;BMP280;52971;44.024;20.456;2022-09-12T03:35:23;97961.09;;;14.84
66170;BMP280;52971;44.024;20.456;2022-09-12T03:37:50;97965.47;;;14.89
66170;BMP280;52971;44.024;20.456;2022-09-12T03:40:16;97964.69;;;14.88
66170;BMP280;52971;44.024;20.456;2022-09-12T03:42:41;97967.72;;;14.87
66170;BMP280;52971;44.024;20.456;2022-09-12T03:45:08;97966.56;;;14.76
66170;BMP280;52971;44.024;20.456;2022-09-12T03:47:34;97958.91;;;14.66
66170;BMP280;52971;44.024;20.456;2022-09-12T03:50:00;97960.28;;;14.72
66170;BMP280;52971;44.024;20.456;2022-09-12T03:52:26;97961.53;;;14.74
66170;BMP280;52971;44.024;20.456;2022-09-12T03:54:51;97965.47;;;14.89
66170;BMP280;52971;44.024;20.456;2022-09-12T03:57:17;97957.03;;;14.87
66170;BMP280;52971;44.024;20.456;2022-09-12T03:59:42;97955.56;;;14.89
66170;BMP280;52971;44.024;20.456;2022-09-12T04:02:08;97962.72;;;14.97
66170;BMP280;52971;44.024;20.456;2022-09-12T04:04:36;97964.66;;;15.09
66170;BMP280;52971;44.024;20.456;2022-09-12T04:07:02;97964.28;;;14.98
66170;BMP280;52971;44.024;20.456;2022-09-12T04:09:27;97960.88;;;15.10
66170;BMP280;52971;44.024;20.456;2022-09-12T04:11:53;97966.09;;;15.07
66170;BMP280;52971;44.024;20.456;2022-09-12T04:14:18;97969.88;;;15.06
66170;BMP280;52971;44.024;20.456;2022-09-12T04:16:44;97966.50;;;14.96
66170;BMP280;52971;44.024;20.456;2022-09-12T04:19:10;97963.72;;;14.93
66170;BMP280;52971;44.024;20.456;2022-09-12T04:21:37;97969.06;;;14.93
66170;BMP280;52971;44.024;20.456;2022-09-12T04:24:03;97957.13;;;14.90
66170;BMP280;52971;44.024;20.456;2022-09-12T04:26:29;97969.75;;;15.02
66170;BMP280;52971;44.024;20.456;2022-09-12T04:28:56;97964.69;;;15.21
66170;BMP280;52971;44.024;20.456;2022-09-12T04:31:23;97967.31;;;15.09
66170;BMP280;52971;44.024;20.456;2022-09-12T04:33:53;97970.25;;;15.16
66170;BMP280;52971;44.024;20.456;2022-09-12T04:36:19;97971.38;;;15.27
66170;BMP280;52971;44.024;20.456;2022-09-12T04:38:46;97965.38;;;15.30
66170;BMP280;52971;44.024;20.456;2022-09-12T04:41:23;97969.81;;;15.26
66170;BMP280;52971;44.024;20.456;2022-09-12T04:43:55;97969.13;;;15.29
66170;BMP280;52971;44.024;20.456;2022-09-12T04:46:24;97976.16;;;15.34
66170;BMP280;52971;44.024;20.456;2022-09-12T04:48:50;97977.50;;;15.28
66170;BMP280;52971;44.024;20.456;2022-09-12T04:51:18;97977.63;;;15.44
66170;BMP280;52971;44.024;20.456;2022-09-12T04:53:49;97985.31;;;15.57
66170;BMP280;52971;44.024;20.456;2022-09-12T04:56:16;97977.44;;;15.49
66170;BMP280;52971;44.024;20.456;2022-09-12T04:58:42;97993.91;;;15.51
66170;BMP280;52971;44.024;20.456;2022-09-12T05:01:13;97988.78;;;15.58
66170;BMP280;52971;44.024;20.456;2022-09-12T05:03:39;97992.78;;;15.52
66170;BMP280;52971;44.024;20.456;2022-09-12T05:06:09;97995.81;;;15.50
66170;BMP280;52971;44.024;20.456;2022-09-12T05:08:35;97997.69;;;15.62
66170;BMP280;52971;44.024;20.456;2022-09-12T05:11:05;97997.81;;;15.53
66170;BMP280;52971;44.024;20.456;2022-09-12T05:13:32;98002.41;;;15.65
66170;BMP280;52971;44.024;20.456;2022-09-12T05:16:00;98003.94;;;15.54
66170;BMP280;52971;44.024;20.456;2022-09-12T05:18:26;97999.94;;;15.60
66170;BMP280;52971;44.024;20.456;2022-09-12T05:20:52;98005.28;;;15.60
66170;BMP280;52971;44.024;20.456;2022-09-12T05:23:18;98004.81;;;15.58
66170;BMP280;52971;44.024;20.456;2022-09-12T05:25:50;98003.97;;;15.66
66170;BMP280;52971;44.024;20.456;2022-09-12T05:28:18;98009.75;;;15.80
66170;BMP280;52971;44.024;20.456;2022-09-12T05:30:43;98012.00;;;15.78
66170;BMP280;52971;44.024;20.456;2022-09-12T05:33:09;98016.19;;;16.03
66170;BMP280;52971;44.024;20.456;2022-09-12T05:35:35;98015.50;;;16.19
66170;BMP280;52971;44.024;20.456;2022-09-12T05:38:03;98017.06;;;16.32
66170;BMP280;52971;44.024;20.456;2022-09-12T05:40:29;98019.28;;;16.42
66170;BMP280;52971;44.024;20.456;2022-09-12T05:42:54;98020.88;;;16.59
66170;BMP280;52971;44.024;20.456;2022-09-12T05:45:20;98017.41;;;16.70
66170;BMP280;52971;44.024;20.456;2022-09-12T05:47:46;98024.47;;;16.90
66170;BMP280;52971;44.024;20.456;2022-09-12T05:50:11;98021.38;;;16.88
66170;BMP280;52971;44.024;20.456;2022-09-12T05:52:37;98013.66;;;16.87
66170;BMP280;52971;44.024;20.456;2022-09-12T05:55:03;98018.53;;;16.97
66170;BMP280;52971;44.024;20.456;2022-09-12T05:57:29;98014.44;;;16.87
66170;BMP280;52971;44.024;20.456;2022-09-12T05:59:54;98014.75;;;16.98
66170;BMP280;52971;44.024;20.456;2022-09-12T06:02:19;98019.34;;;17.13
66170;BMP280;52971;44.024;20.456;2022-09-12T06:04:45;98022.09;;;17.17
66170;BMP280;52971;44.024;20.456;2022-09-12T06:07:11;98016.47;;;17.22
66170;BMP280;52971;44.024;20.456;2022-09-12T06:09:36;98015.06;;;17.24
66170;BMP280;52971;44.024;20.456;2022-09-12T06:12:02;98016.97;;;17.24
66170;BMP280;52971;44.024;20.456;2022-09-12T06:14:28;98018.47;;;17.09
66170;BMP280;52971;44.024;20.456;2022-09-12T06:16:53;98030.59;;;17.19
66170;BMP280;52971;44.024;20.456;2022-09-12T06:19:20;98027.41;;;17.29
66170;BMP280;52971;44.024;20.456;2022-09-12T06:21:46;98026.00;;;17.35
66170;BMP280;52971;44.024;20.456;2022-09-12T06:24:14;98030.09;;;17.29
66170;BMP280;52971;44.024;20.456;2022-09-12T06:26:40;98035.06;;;17.15
66170;BMP280;52971;44.024;20.456;2022-09-12T06:29:06;98026.97;;;17.27
66170;BMP280;52971;44.024;20.456;2022-09-12T06:31:34;98028.91;;;17.42
66170;BMP280;52971;44.024;20.456;2022-09-12T06:34:05;98029.25;;;17.56
66170;BMP280;52971;44.024;20.456;2022-09-12T06:36:37;98022.91;;;17.64
66170;BMP280;52971;44.024;20.456;2022-09-12T06:39:08;98029.59;;;17.55
66170;BMP280;52971;44.024;20.456;2022-09-12T06:41:34;98026.72;;;17.48
66170;BMP280;52971;44.024;20.456;2022-09-12T06:44:00;98026.13;;;17.54
66170;BMP280;52971;44.024;20.456;2022-09-12T06:46:26;98023.69;;;17.49
66170;BMP280;52971;44.024;20.456;2022-09-12T06:48:54;98029.16;;;17.53
66170;BMP280;52971;44.024;20.456;2022-09-12T06:51:19;98025.25;;;17.50
66170;BMP280;52971;44.024;20.456;2022-09-12T06:53:46;98027.41;;;17.45
66170;BMP280;52971;44.024;20.456;2022-09-12T06:56:13;98031.47;;;17.54
66170;BMP280;52971;44.024;20.456;2022-09-12T06:58:39;98031.22;;;17.59
66170;BMP280;52971;44.024;20.456;2022-09-12T07:01:13;98030.16;;;17.80
66170;BMP280;52971;44.024;20.456;2022-09-12T07:03:40;98030.06;;;17.92
66170;BMP280;52971;44.024;20.456;2022-09-12T07:06:08;98032.66;;;18.04
66170;BMP280;52971;44.024;20.456;2022-09-12T07:08:35;98037.00;;;17.93
66170;BMP280;52971;44.024;20.456;2022-09-12T07:13:43;98045.13;;;17.96
66170;BMP280;52971;44.024;20.456;2022-09-12T07:16:09;98045.94;;;17.97
66170;BMP280;52971;44.024;20.456;2022-09-12T07:18:35;98035.75;;;18.06
66170;BMP280;52971;44.024;20.456;2022-09-12T07:21:04;98041.00;;;18.18
66170;BMP280;52971;44.024;20.456;2022-09-12T07:23:29;98033.94;;;18.10
66170;BMP280;52971;44.024;20.456;2022-09-12T07:25:57;98044.59;;;18.06
66170;BMP280;52971;44.024;20.456;2022-09-12T07:28:25;98042.31;;;18.08
66170;BMP280;52971;44.024;20.456;2022-09-12T07:30:51;98040.06;;;18.26
66170;BMP280;52971;44.024;20.456;2022-09-12T07:33:19;98043.16;;;18.28
66170;BMP280;52971;44.024;20.456;2022-09-12T07:35:45;98049.09;;;18.37
66170;BMP280;52971;44.024;20.456;2022-09-12T07:38:11;98052.84;;;18.33
66170;BMP280;52971;44.024;20.456;2022-09-12T07:40:36;98055.53;;;18.33
66170;BMP280;52971;44.024;20.456;2022-09-12T07:43:02;98055.78;;;18.43
66170;BMP280;52971;44.024;20.456;2022-09-12T07:45:27;98051.97;;;18.44
66170;BMP280;52971;44.024;20.456;2022-09-12T07:47:54;98055.69;;;18.40
66170;BMP280;52971;44.024;20.456;2022-09-12T07:50:19;98051.53;;;18.62
66170;BMP280;52971;44.024;20.456;2022-09-12T07:52:44;98052.44;;;18.69
66170;BMP280;52971;44.024;20.456;2022-09-12T07:55:10;98052.31;;;18.81
66170;BMP280;52971;44.024;20.456;2022-09-12T07:57:36;98054.75;;;18.52
66170;BMP280;52971;44.024;20.456;2022-09-12T08:00:03;98052.22;;;18.39
66170;BMP280;52971;44.024;20.456;2022-09-12T08:02:29;98051.09;;;18.40
66170;BMP280;52971;44.024;20.456;2022-09-12T08:04:55;98058.28;;;18.56
66170;BMP280;52971;44.024;20.456;2022-09-12T08:07:20;98058.81;;;18.80
66170;BMP280;52971;44.024;20.456;2022-09-12T08:09:46;98059.84;;;19.37
66170;BMP280;52971;44.024;20.456;2022-09-12T08:12:11;98049.59;;;19.23
66170;BMP280;52971;44.024;20.456;2022-09-12T08:14:36;98058.47;;;19.47
66170;BMP280;52971;44.024;20.456;2022-09-12T08:17:02;98059.63;;;19.46
66170;BMP280;52971;44.024;20.456;2022-09-12T08:19:27;98054.06;;;19.58
66170;BMP280;52971;44.024;20.456;2022-09-12T08:21:53;98054.22;;;19.46
66170;BMP280;52971;44.024;20.456;2022-09-12T08:24:18;98050.28;;;19.89
66170;BMP280;52971;44.024;20.456;2022-09-12T08:26:44;98046.00;;;19.84
66170;BMP280;52971;44.024;20.456;2022-09-12T08:29:10;98040.75;;;19.68
66170;BMP280;52971;44.024;20.456;2022-09-12T08:31:36;98039.56;;;19.66
66170;BMP280;52971;44.024;20.456;2022-09-12T08:34:03;98045.38;;;19.94
66170;BMP280;52971;44.024;20.456;2022-09-12T08:36:30;98042.84;;;19.79
66170;BMP280;52971;44.024;20.456;2022-09-12T08:39:01;98044.00;;;20.04
66170;BMP280;52971;44.024;20.456;2022-09-12T08:41:30;98035.19;;;20.40
66170;BMP280;52971;44.024;20.456;2022-09-12T08:49:46;98037.59;;;20.79
66170;BMP280;52971;44.024;20.456;2022-09-12T08:55:40;98024.13;;;21.78
66170;BMP280;52971;44.024;20.456;2022-09-12T09:01:00;98031.81;;;21.68
66170;BMP280;52971;44.024;20.456;2022-09-12T09:06:35;98029.22;;;21.83
66170;BMP280;52971;44.024;20.456;2022-09-12T09:09:14;98029.03;;;21.58
66170;BMP280;52971;44.024;20.456;2022-09-12T09:11:52;98032.78;;;22.08
66170;BMP280;52971;44.024;20.456;2022-09-12T09:17:34;98038.97;;;21.43
66170;BMP280;52971;44.024;20.456;2022-09-12T09:22:43;98046.63;;;20.97
66170;BMP280;52971;44.024;20.456;2022-09-12T09:25:21;98044.56;;;20.83
66170;BMP280;52971;44.024;20.456;2022-09-12T09:27:57;98047.94;;;20.77
66170;BMP280;52971;44.024;20.456;2022-09-12T09:30:23;98050.22;;;21.12
66170;BMP280;52971;44.024;20.456;2022-09-12T09:32:54;98033.56;;;21.43
66170;BMP280;52971;44.024;20.456;2022-09-12T09:38:11;98037.22;;;21.75
66170;BMP280;52971;44.024;20.456;2022-09-12T09:43:49;98033.88;;;21.96
66170;BMP280;52971;44.024;20.456;2022-09-12T09:46:14;98032.50;;;22.27
66170;BMP280;52971;44.024;20.456;2022-09-12T09:48:43;98022.13;;;22.47
66170;BMP280;52971;44.024;20.456;2022-09-12T09:51:10;98022.25;;;22.89
66170;BMP280;52971;44.024;20.456;2022-09-12T09:53:44;98028.44;;;23.04
66170;BMP280;52971;44.024;20.456;2022-09-12T09:56:17;98017.56;;;23.29
66170;BMP280;52971;44.024;20.456;2022-09-12T09:58:47;98013.25;;;22.53
66170;BMP280;52971;44.024;20.456;2022-09-12T10:01:16;98026.06;;;22.85
66170;BMP280;52971;44.024;20.456;2022-09-12T10:03:48;98024.94;;;22.96
66170;BMP280;52971;44.024;20.456;2022-09-12T10:06:30;98022.16;;;22.65
66170;BMP280;52971;44.024;20.456;2022-09-12T10:11:31;98005.22;;;23.07
66170;BMP280;52971;44.024;20.456;2022-09-12T10:13:57;98003.66;;;22.81
66170;BMP280;52971;44.024;20.456;2022-09-12T10:16:30;98001.28;;;23.78
66170;BMP280;52971;44.024;20.456;2022-09-12T10:18:57;98015.66;;;23.29
66170;BMP280;52971;44.024;20.456;2022-09-12T10:21:45;98017.19;;;22.77
66170;BMP280;52971;44.024;20.456;2022-09-12T10:24:22;98034.94;;;22.68
66170;BMP280;52971;44.024;20.456;2022-09-12T10:27:35;98014.78;;;23.93
66170;BMP280;52971;44.024;20.456;2022-09-12T10:29:42;98019.06;;;24.63
66170;BMP280;52971;44.024;20.456;2022-09-12T10:32:10;98024.00;;;25.27
66170;BMP280;52971;44.024;20.456;2022-09-12T10:34:41;98018.31;;;25.85
66170;BMP280;52971;44.024;20.456;2022-09-12T10:37:14;98003.31;;;25.40
66170;BMP280;52971;44.024;20.456;2022-09-12T10:39:49;98030.00;;;24.45
66170;BMP280;52971;44.024;20.456;2022-09-12T10:42:17;98023.75;;;26.15
66170;BMP280;52971;44.024;20.456;2022-09-12T10:44:51;98025.28;;;27.79
66170;BMP280;52971;44.024;20.456;2022-09-12T10:47:20;98025.06;;;28.42
66170;BMP280;52971;44.024;20.456;2022-09-12T10:49:46;98025.25;;;29.28
66170;BMP280;52971;44.024;20.456;2022-09-12T10:52:29;98000.28;;;28.00
66170;BMP280;52971;44.024;20.456;2022-09-12T10:54:55;98012.25;;;27.67
66170;BMP280;52971;44.024;20.456;2022-09-12T10:58:00;98028.59;;;27.28
66170;BMP280;52971;44.024;20.456;2022-09-12T11:00:29;98006.97;;;26.74
66170;BMP280;52971;44.024;20.456;2022-09-12T11:03:00;98007.28;;;25.99
66170;BMP280;52971;44.024;20.456;2022-09-12T11:08:43;98031.06;;;24.58
66170;BMP280;52971;44.024;20.456;2022-09-12T11:16:51;98008.31;;;27.32
66170;BMP280;52971;44.024;20.456;2022-09-12T11:19:36;97984.25;;;27.67
66170;BMP280;52971;44.024;20.456;2022-09-12T11:22:29;97983.75;;;26.66
66170;BMP280;52971;44.024;20.456;2022-09-12T11:25:11;97996.78;;;25.64
66170;BMP280;52971;44.024;20.456;2022-09-12T11:28:26;98006.88;;;24.23
66170;BMP280;52971;44.024;20.456;2022-09-12T11:33:49;98000.56;;;23.60
66170;BMP280;52971;44.024;20.456;2022-09-12T11:39:33;98006.00;;;23.07
66170;BMP280;52971;44.024;20.456;2022-09-12T11:42:03;98020.28;;;23.36
66170;BMP280;52971;44.024;20.456;2022-09-12T11:44:39;98000.13;;;23.62
66170;BMP280;52971;44.024;20.456;2022-09-12T11:47:12;98006.28;;;23.76
66170;BMP280;52971;44.024;20.456;2022-09-12T11:49:49;98006.78;;;23.08
66170;BMP280;52971;44.024;20.456;2022-09-12T11:52:18;98006.41;;;23.20
66170;BMP280;52971;44.024;20.456;2022-09-12T11:55:03;98003.28;;;23.07
66170;BMP280;52971;44.024;20.456;2022-09-12T11:57:41;98000.59;;;22.75
66170;BMP280;52971;44.024;20.456;2022-09-12T12:00:17;97993.19;;;22.65
66170;BMP280;52971;44.024;20.456;2022-09-12T12:05:50;97990.06;;;23.66
66170;BMP280;52971;44.024;20.456;2022-09-12T12:08:18;97995.16;;;23.42
66170;BMP280;52971;44.024;20.456;2022-09-12T12:10:51;97982.38;;;23.43
66170;BMP280;52971;44.024;20.456;2022-09-12T12:15:50;97992.84;;;22.91
66170;BMP280;52971;44.024;20.456;2022-09-12T12:18:18;98002.88;;;22.63
66170;BMP280;52971;44.024;20.456;2022-09-12T12:20:46;97993.19;;;22.54
66170;BMP280;52971;44.024;20.456;2022-09-12T12:23:26;97992.38;;;22.36
66170;BMP280;52971;44.024;20.456;2022-09-12T12:25:55;97994.31;;;22.36
66170;BMP280;52971;44.024;20.456;2022-09-12T12:31:05;97980.50;;;23.15
66170;BMP280;52971;44.024;20.456;2022-09-12T12:40:52;97971.97;;;23.34
66170;BMP280;52971;44.024;20.456;2022-09-12T12:43:29;97980.13;;;23.17
66170;BMP280;52971;44.024;20.456;2022-09-12T12:46:05;97980.09;;;22.85
66170;BMP280;52971;44.024;20.456;2022-09-12T12:48:34;97983.94;;;22.70
66170;BMP280;52971;44.024;20.456;2022-09-12T12:51:32;97972.78;;;22.85
66170;BMP280;52971;44.024;20.456;2022-09-12T12:54:01;97982.75;;;22.42
66170;BMP280;52971;44.024;20.456;2022-09-12T12:56:28;97977.31;;;22.32
66170;BMP280;52971;44.024;20.456;2022-09-12T12:59:02;97971.97;;;22.60
66170;BMP280;52971;44.024;20.456;2022-09-12T13:01:29;97965.78;;;22.81
66170;BMP280;52971;44.024;20.456;2022-09-12T13:03:55;97958.84;;;23.22
66170;BMP280;52971;44.024;20.456;2022-09-12T13:06:35;97956.78;;;23.69
66170;BMP280;52971;44.024;20.456;2022-09-12T13:09:06;97951.28;;;23.94
66170;BMP280;52971;44.024;20.456;2022-09-12T13:11:34;97947.34;;;24.05
66170;BMP280;52971;44.024;20.456;2022-09-12T13:14:03;97953.69;;;23.67
66170;BMP280;52971;44.024;20.456;2022-09-12T13:16:52;97949.88;;;23.54
66170;BMP280;52971;44.024;20.456;2022-09-12T13:19:23;97956.50;;;23.35
66170;BMP280;52971;44.024;20.456;2022-09-12T13:22:16;97949.56;;;23.13
66170;BMP280;52971;44.024;20.456;2022-09-12T13:24:47;97954.19;;;23.23
66170;BMP280;52971;44.024;20.456;2022-09-12T13:27:21;97951.88;;;23.18
66170;BMP280;52971;44.024;20.456;2022-09-12T13:29:47;97959.53;;;23.62
66170;BMP280;52971;44.024;20.456;2022-09-12T13:32:14;97955.88;;;24.00
66170;BMP280;52971;44.024;20.456;2022-09-12T13:35:06;97940.88;;;24.47
66170;BMP280;52971;44.024;20.456;2022-09-12T13:37:44;97944.75;;;24.53
66170;BMP280;52971;44.024;20.456;2022-09-12T13:43:14;97936.50;;;25.08
66170;BMP280;52971;44.024;20.456;2022-09-12T13:45:44;97927.38;;;24.88
66170;BMP280;52971;44.024;20.456;2022-09-12T13:48:15;97930.63;;;24.17
66170;BMP280;52971;44.024;20.456;2022-09-12T13:50:50;97929.50;;;24.11
66170;BMP280;52971;44.024;20.456;2022-09-12T13:53:20;97939.72;;;23.82
66170;BMP280;52971;44.024;20.456;2022-09-12T13:55:50;97939.44;;;23.49
66170;BMP280;52971;44.024;20.456;2022-09-12T13:58:30;97940.66;;;23.23
66170;BMP280;52971;44.024;20.456;2022-09-12T14:01:14;97942.63;;;23.01
66170;BMP280;52971;44.024;20.456;2022-09-12T14:03:55;97937.53;;;23.42
66170;BMP280;52971;44.024;20.456;2022-09-12T14:06:49;97936.06;;;23.16
66170;BMP280;52971;44.024;20.456;2022-09-12T14:09:24;97934.53;;;23.01
66170;BMP280;52971;44.024;20.456;2022-09-12T14:11:50;97930.22;;;23.14
66170;BMP280;52971;44.024;20.456;2022-09-12T14:14:32;97942.25;;;22.71
66170;BMP280;52971;44.024;20.456;2022-09-12T14:16:58;97933.75;;;22.90
66170;BMP280;52971;44.024;20.456;2022-09-12T14:19:25;97932.19;;;22.68
66170;BMP280;52971;44.024;20.456;2022-09-12T14:21:52;97933.34;;;22.63
66170;BMP280;52971;44.024;20.456;2022-09-12T14:24:18;97934.84;;;22.46
66170;BMP280;52971;44.024;20.456;2022-09-12T14:26:47;97932.56;;;22.48
66170;BMP280;52971;44.024;20.456;2022-09-12T14:29:14;97936.03;;;22.49
66170;BMP280;52971;44.024;20.456;2022-09-12T14:31:41;97934.44;;;22.34
66170;BMP280;52971;44.024;20.456;2022-09-12T14:34:16;97930.59;;;22.28
66170;BMP280;52971;44.024;20.456;2022-09-12T14:36:45;97934.75;;;22.04
66170;BMP280;52971;44.024;20.456;2022-09-12T14:39:31;97932.91;;;22.29
66170;BMP280;52971;44.024;20.456;2022-09-12T14:42:05;97934.72;;;21.90
66170;BMP280;52971;44.024;20.456;2022-09-12T14:44:32;97939.25;;;21.71
66170;BMP280;52971;44.024;20.456;2022-09-12T14:47:13;97937.44;;;22.04
66170;BMP280;52971;44.024;20.456;2022-09-12T14:49:42;97927.81;;;22.10
66170;BMP280;52971;44.024;20.456;2022-09-12T14:52:31;97937.06;;;22.02
66170;BMP280;52971;44.024;20.456;2022-09-12T14:55:03;97928.97;;;21.98
66170;BMP280;52971;44.024;20.456;2022-09-12T14:57:43;97930.13;;;21.97
66170;BMP280;52971;44.024;20.456;2022-09-12T15:02:44;97925.88;;;22.00
66170;BMP280;52971;44.024;20.456;2022-09-12T15:07:38;97920.75;;;21.81
66170;BMP280;52971;44.024;20.456;2022-09-12T15:10:29;97920.09;;;22.05
66170;BMP280;52971;44.024;20.456;2022-09-12T15:15:30;97921.31;;;22.22
66170;BMP280;52971;44.024;20.456;2022-09-12T15:17:55;97918.63;;;22.29
66170;BMP280;52971;44.024;20.456;2022-09-12T15:20:21;97915.53;;;22.30
66170;BMP280;52971;44.024;20.456;2022-09-12T15:22:47;97919.75;;;22.17
66170;BMP280;52971;44.024;20.456;2022-09-12T15:25:13;97922.13;;;22.57
66170;BMP280;52971;44.024;20.456;2022-09-12T15:27:38;97918.63;;;22.29
66170;BMP280;52971;44.024;20.456;2022-09-12T15:30:06;97913.56;;;22.16
66170;BMP280;52971;44.024;20.456;2022-09-12T15:32:32;97914.34;;;22.17
66170;BMP280;52971;44.024;20.456;2022-09-12T15:34:58;97905.84;;;22.11
66170;BMP280;52971;44.024;20.456;2022-09-12T15:37:24;97908.06;;;21.88
66170;BMP280;52971;44.024;20.456;2022-09-12T15:39:50;97904.19;;;21.79
66170;BMP280;52971;44.024;20.456;2022-09-12T15:42:26;97913.06;;;21.79
66170;BMP280;52971;44.024;20.456;2022-09-12T15:44:53;97917.22;;;21.62
66170;BMP280;52971;44.024;20.456;2022-09-12T15:47:18;97904.91;;;21.68
66170;BMP280;52971;44.024;20.456;2022-09-12T15:49:44;97907.97;;;21.63
66170;BMP280;52971;44.024;20.456;2022-09-12T15:52:13;97906.88;;;21.79
66170;BMP280;52971;44.024;20.456;2022-09-12T15:54:39;97907.63;;;21.68
66170;BMP280;52971;44.024;20.456;2022-09-12T15:57:05;97911.41;;;21.60
66170;BMP280;52971;44.024;20.456;2022-09-12T15:59:30;97908.34;;;21.55
66170;BMP280;52971;44.024;20.456;2022-09-12T16:01:56;97894.84;;;21.58
66170;BMP280;52971;44.024;20.456;2022-09-12T16:04:27;97907.56;;;21.61
66170;BMP280;52971;44.024;20.456;2022-09-12T16:06:53;97906.00;;;21.53
66170;BMP280;52971;44.024;20.456;2022-09-12T16:09:20;97907.56;;;21.54
66170;BMP280;52971;44.024;20.456;2022-09-12T16:11:46;97905.88;;;21.36
66170;BMP280;52971;44.024;20.456;2022-09-12T16:14:16;97905.78;;;21.21
66170;BMP280;52971;44.024;20.456;2022-09-12T16:16:43;97911.59;;;21.23
66170;BMP280;52971;44.024;20.456;2022-09-12T16:19:09;97903.44;;;21.16